Time;durP1;ratioP1;P1;durP2;ratioP2;P2;SDS_P1;SDS_P2;PMS_P1;PMS_P2;Temp;Humidity;BMP_temperature;BMP_pressure;BME280_temperature;BME280_humidity;BME280_pressure;Samples;Min_cycle;Max_cycle;Signal;HPM_P1;HPM_P2
2023/08/24 00:01:49;;;;;;;9.57;6.87;;;19.50;99.90;;;;;;5039090;28;20221;-62
2023/08/24 00:04:17;;;;;;;9.97;6.03;;;19.50;99.90;;;;;;5039907;28;20236;-63
2023/08/24 00:06:46;;;;;;;12.60;6.73;;;19.50;99.90;;;;;;5041870;28;20279;-63
2023/08/24 00:09:15;;;;;;;11.63;6.07;;;19.50;99.90;;;;;;5044102;28;20223;-63
2023/08/24 00:11:43;;;;;;;7.10;6.17;;;19.50;99.90;;;;;;5042182;28;20216;-63
2023/08/24 00:14:13;;;;;;;9.90;6.17;;;19.60;99.90;;;;;;5044512;28;20627;-63
2023/08/24 00:16:43;;;;;;;9.40;6.80;;;19.60;99.90;;;;;;5043276;28;20220;-63
2023/08/24 00:19:12;;;;;;;8.13;6.33;;;19.70;99.90;;;;;;5040338;28;20201;-63
2023/08/24 00:21:40;;;;;;;8.13;5.57;;;19.70;99.90;;;;;;5042235;28;20229;-63
2023/08/24 00:24:08;;;;;;;11.90;6.40;;;19.70;99.90;;;;;;5043655;28;20222;-63
2023/08/24 00:26:37;;;;;;;11.67;6.40;;;19.70;99.90;;;;;;5041084;28;20259;-63
2023/08/24 00:29:05;;;;;;;9.20;6.33;;;19.70;99.90;;;;;;5044459;28;20224;-63
2023/08/24 00:31:35;;;;;;;11.67;6.60;;;19.70;99.90;;;;;;5037808;28;20248;-64
2023/08/24 00:34:06;;;;;;;10.33;6.13;;;19.70;99.90;;;;;;5040447;28;20196;-63
2023/08/24 00:36:34;;;;;;;8.73;6.40;;;19.60;99.90;;;;;;5037604;28;20220;-63
2023/08/24 00:39:04;;;;;;;10.63;6.33;;;19.60;99.90;;;;;;5048185;28;20323;-63
2023/08/24 00:41:33;;;;;;;9.73;6.53;;;19.60;99.90;;;;;;5042696;28;20213;-63
2023/08/24 00:44:01;;;;;;;11.33;6.47;;;19.60;99.90;;;;;;5040110;28;20221;-63
2023/08/24 00:46:30;;;;;;;10.07;6.03;;;19.60;99.90;;;;;;5043083;28;20189;-63
2023/08/24 00:49:00;;;;;;;7.97;5.90;;;19.60;99.90;;;;;;5043453;28;20204;-63
2023/08/24 00:51:28;;;;;;;6.80;6.10;;;19.60;99.90;;;;;;5042739;28;20225;-64
2023/08/24 00:53:57;;;;;;;6.50;5.73;;;19.60;99.90;;;;;;5039659;28;20590;-63
2023/08/24 00:56:26;;;;;;;6.20;5.60;;;19.60;99.90;;;;;;5037488;28;20217;-63
2023/08/24 00:58:55;;;;;;;7.93;5.40;;;19.60;99.90;;;;;;5039258;28;20234;-63
2023/08/24 01:01:24;;;;;;;10.67;6.47;;;19.60;99.90;;;;;;5044833;28;20651;-62
2023/08/24 01:03:53;;;;;;;7.63;5.77;;;19.60;99.90;;;;;;5045995;28;20286;-63
2023/08/24 01:06:23;;;;;;;8.30;5.57;;;19.60;99.90;;;;;;5045721;28;20220;-64
2023/08/24 01:08:54;;;;;;;7.03;6.00;;;19.70;99.90;;;;;;5029024;28;20226;-63
2023/08/24 01:11:31;;;;;;;10.13;5.80;;;19.70;99.90;;;;;;5037552;28;20216;-63
2023/08/24 01:14:04;;;;;;;10.83;6.27;;;19.70;99.90;;;;;;5044102;28;20212;-63
2023/08/24 01:16:36;;;;;;;7.50;6.13;;;19.70;99.90;;;;;;5046592;28;20614;-63
2023/08/24 01:19:07;;;;;;;10.93;6.00;;;19.70;99.90;;;;;;5043932;28;20219;-63
2023/08/24 01:21:38;;;;;;;10.70;6.00;;;19.70;99.90;;;;;;5042918;28;20222;-63
2023/08/24 01:24:14;;;;;;;8.27;5.80;;;19.70;99.90;;;;;;5043060;28;20216;-63
2023/08/24 01:26:45;;;;;;;8.40;6.43;;;19.60;99.90;;;;;;5039533;28;20235;-63
2023/08/24 01:29:15;;;;;;;8.57;5.73;;;19.70;99.90;;;;;;5040334;28;20217;-63
2023/08/24 01:31:43;;;;;;;8.83;6.23;;;19.70;99.90;;;;;;5038134;28;20224;-63
2023/08/24 01:34:12;;;;;;;7.70;6.27;;;19.70;99.90;;;;;;5039667;28;20201;-63
2023/08/24 01:36:40;;;;;;;9.87;6.80;;;19.70;99.90;;;;;;5038749;28;20223;-63
2023/08/24 01:39:20;;;;;;;8.97;6.67;;;19.70;99.90;;;;;;5047165;28;20311;-63
2023/08/24 01:41:53;;;;;;;10.40;6.07;;;19.60;99.90;;;;;;5039506;28;20642;-63
2023/08/24 01:44:24;;;;;;;9.47;5.60;;;19.70;99.90;;;;;;5042898;28;20300;-63
2023/08/24 01:46:53;;;;;;;8.07;6.63;;;19.60;99.90;;;;;;5034234;28;20240;-63
2023/08/24 01:49:23;;;;;;;9.17;6.50;;;19.60;99.90;;;;;;5050799;28;20588;-63
2023/08/24 01:51:52;;;;;;;11.73;7.57;;;19.60;99.90;;;;;;5044554;28;20205;-64
2023/08/24 01:54:20;;;;;;;11.03;7.40;;;19.60;99.90;;;;;;5047553;28;20215;-64
2023/08/24 01:56:50;;;;;;;12.07;7.90;;;19.60;99.90;;;;;;5042276;28;20232;-64
2023/08/24 01:59:19;;;;;;;9.73;7.83;;;19.40;99.90;;;;;;5027737;28;20244;-64
2023/08/24 02:01:47;;;;;;;12.87;8.27;;;19.40;99.90;;;;;;5030119;28;20252;-63
2023/08/24 02:04:15;;;;;;;11.10;8.43;;;19.30;99.90;;;;;;5044820;28;20231;-64
2023/08/24 02:06:44;;;;;;;14.20;8.80;;;19.30;99.90;;;;;;5042818;28;20227;-64
2023/08/24 02:09:12;;;;;;;12.37;8.23;;;19.20;99.90;;;;;;5038949;28;20217;-64
2023/08/24 02:11:40;;;;;;;12.13;9.00;;;19.20;99.90;;;;;;5040628;28;20216;-64
2023/08/24 02:14:10;;;;;;;12.00;8.50;;;19.20;99.90;;;;;;5032466;28;20723;-64
2023/08/24 02:16:39;;;;;;;14.47;8.50;;;19.20;99.90;;;;;;5036407;28;20536;-63
2023/08/24 02:19:07;;;;;;;12.77;8.03;;;19.20;99.90;;;;;;5046621;28;20193;-64
2023/08/24 02:21:36;;;;;;;9.90;8.37;;;19.20;99.90;;;;;;5033348;28;20228;-64
2023/08/24 02:24:05;;;;;;;10.40;7.73;;;19.20;99.90;;;;;;5045278;28;20243;-64
2023/08/24 02:26:34;;;;;;;15.10;8.20;;;19.20;99.90;;;;;;5037843;28;20225;-64
2023/08/24 02:29:02;;;;;;;12.33;8.13;;;19.20;99.90;;;;;;5042008;28;20380;-63
2023/08/24 02:31:32;;;;;;;11.77;8.77;;;19.20;99.90;;;;;;5024165;28;20201;-63
2023/08/24 02:34:00;;;;;;;11.57;8.13;;;19.10;99.90;;;;;;5041475;28;20225;-64
2023/08/24 02:36:31;;;;;;;12.90;8.10;;;19.10;99.90;;;;;;5034152;28;20684;-64
2023/08/24 02:39:00;;;;;;;14.63;8.63;;;19.10;99.90;;;;;;5043764;28;20216;-64
2023/08/24 02:41:28;;;;;;;12.80;8.70;;;19.10;99.90;;;;;;5026397;28;20236;-64
2023/08/24 02:43:57;;;;;;;12.03;8.67;;;19.10;99.90;;;;;;5043692;28;20223;-64
2023/08/24 02:46:25;;;;;;;13.20;8.30;;;19.00;99.90;;;;;;5048449;28;20189;-63
2023/08/24 02:48:54;;;;;;;14.03;8.67;;;19.00;99.90;;;;;;5038399;28;20283;-64
2023/08/24 02:51:24;;;;;;;12.40;8.90;;;19.00;99.90;;;;;;5047486;28;20228;-64
2023/08/24 02:53:52;;;;;;;10.37;8.70;;;18.90;99.90;;;;;;5036093;28;20227;-64
2023/08/24 02:56:20;;;;;;;13.33;9.00;;;18.90;99.90;;;;;;5043594;28;20221;-64
2023/08/24 02:58:49;;;;;;;17.63;9.07;;;18.80;99.90;;;;;;5043305;28;20338;-64
2023/08/24 03:01:18;;;;;;;9.23;8.27;;;18.80;99.90;;;;;;5032237;28;20541;-64
2023/08/24 03:03:46;;;;;;;10.27;8.37;;;18.80;99.90;;;;;;5046503;28;20233;-65
2023/08/24 03:06:16;;;;;;;14.30;8.80;;;18.70;99.90;;;;;;5044206;28;20216;-64
2023/08/24 03:08:45;;;;;;;13.00;9.20;;;18.70;99.90;;;;;;5022795;28;20217;-64
2023/08/24 03:11:13;;;;;;;14.40;9.30;;;18.60;99.90;;;;;;5029425;28;20221;-65
2023/08/24 03:13:42;;;;;;;10.37;8.63;;;18.60;99.90;;;;;;5028443;28;20233;-64
2023/08/24 03:16:10;;;;;;;14.17;8.83;;;18.60;99.90;;;;;;5035256;28;20194;-64
2023/08/24 03:18:38;;;;;;;13.93;9.23;;;18.50;99.90;;;;;;5036693;28;20248;-64
2023/08/24 03:21:07;;;;;;;10.27;8.37;;;18.50;99.90;;;;;;5045360;28;20217;-64
2023/08/24 03:23:37;;;;;;;9.47;7.80;;;18.50;99.90;;;;;;5036620;28;20220;-64
2023/08/24 03:26:05;;;;;;;12.10;8.77;;;18.60;99.90;;;;;;5034716;28;20228;-64
2023/08/24 03:28:34;;;;;;;12.53;9.03;;;18.50;99.90;;;;;;5044246;28;20197;-63
2023/08/24 03:31:02;;;;;;;10.33;8.70;;;18.40;99.90;;;;;;5045448;28;20675;-64
2023/08/24 03:33:33;;;;;;;13.20;8.73;;;18.40;99.90;;;;;;5041211;28;20248;-64
2023/08/24 03:36:03;;;;;;;10.20;8.87;;;18.40;99.90;;;;;;5046913;28;20220;-64
2023/08/24 03:38:31;;;;;;;9.90;8.07;;;18.30;99.90;;;;;;5039304;28;20229;-64
2023/08/24 03:41:05;;;;;;;13.40;8.97;;;18.30;99.90;;;;;;5040740;28;20722;-64
2023/08/24 03:43:34;;;;;;;15.07;9.07;;;18.20;99.90;;;;;;5039642;28;20228;-63
2023/08/24 03:46:03;;;;;;;10.83;9.13;;;18.30;99.90;;;;;;5044671;28;20287;-64
2023/08/24 03:48:33;;;;;;;10.20;8.30;;;18.20;99.90;;;;;;5035532;28;20568;-65
2023/08/24 03:51:01;;;;;;;10.23;9.20;;;18.20;99.90;;;;;;5047087;28;20653;-64
2023/08/24 03:53:30;;;;;;;9.83;8.40;;;18.10;99.90;;;;;;5043408;28;20216;-64
2023/08/24 03:55:58;;;;;;;10.33;8.50;;;18.10;99.90;;;;;;5042504;28;20638;-64
2023/08/24 03:58:28;;;;;;;9.77;8.23;;;18.00;99.90;;;;;;5033951;28;20551;-63
2023/08/24 04:00:56;;;;;;;10.27;8.40;;;17.90;99.90;;;;;;5038225;28;20198;-64
2023/08/24 04:03:25;;;;;;;14.57;9.30;;;17.90;99.90;;;;;;5041829;28;20229;-64
2023/08/24 04:05:53;;;;;;;13.30;8.60;;;17.80;99.90;;;;;;5033885;28;20692;-64
2023/08/24 04:08:21;;;;;;;10.10;7.93;;;17.80;99.90;;;;;;5040215;28;20817;-64
2023/08/24 04:10:50;;;;;;;11.37;8.50;;;17.70;99.90;;;;;;5051290;28;20706;-64
2023/08/24 04:13:18;;;;;;;13.00;8.97;;;17.80;99.90;;;;;;5037567;28;20215;-64
2023/08/24 04:15:48;;;;;;;12.60;8.93;;;17.80;99.90;;;;;;5040151;28;20697;-64
2023/08/24 04:18:16;;;;;;;10.37;8.97;;;17.80;99.90;;;;;;5046451;28;20323;-63
2023/08/24 04:20:45;;;;;;;15.63;9.87;;;17.80;99.90;;;;;;5044423;28;20285;-64
2023/08/24 04:23:16;;;;;;;10.03;8.57;;;17.90;99.90;;;;;;5042305;28;20208;-64
2023/08/24 04:25:44;;;;;;;13.83;9.10;;;17.90;99.90;;;;;;5043246;28;20312;-63
2023/08/24 04:28:13;;;;;;;13.63;9.30;;;18.00;99.90;;;;;;5038150;28;20280;-63
2023/08/24 04:30:41;;;;;;;15.03;9.40;;;18.00;99.90;;;;;;5033439;28;20316;-63
2023/08/24 04:33:11;;;;;;;11.27;8.73;;;18.00;99.90;;;;;;5030625;28;20650;-63
2023/08/24 04:35:39;;;;;;;10.90;9.07;;;18.00;99.90;;;;;;5046387;28;20671;-64
2023/08/24 04:38:09;;;;;;;10.03;9.03;;;17.90;99.90;;;;;;5041604;28;20239;-64
2023/08/24 04:40:51;;;;;;;14.80;9.77;;;17.90;99.90;;;;;;5036943;28;20567;-63
2023/08/24 04:43:20;;;;;;;12.87;10.40;;;17.90;99.90;;;;;;5047297;28;20717;-64
2023/08/24 04:45:52;;;;;;;13.93;10.23;;;17.90;99.90;;;;;;5047806;28;20215;-64
2023/08/24 04:48:23;;;;;;;17.77;11.13;;;17.90;99.90;;;;;;5022168;28;20299;-64
2023/08/24 04:50:52;;;;;;;13.50;10.17;;;17.90;99.90;;;;;;5052570;28;20764;-64
2023/08/24 04:53:21;;;;;;;13.97;9.83;;;17.80;99.90;;;;;;5044305;28;20235;-64
2023/08/24 04:55:49;;;;;;;16.43;10.90;;;17.80;99.90;;;;;;5044920;28;20244;-63
2023/08/24 04:58:21;;;;;;;15.73;10.87;;;17.80;99.90;;;;;;5045720;28;20561;-64
2023/08/24 05:00:49;;;;;;;14.60;11.40;;;17.80;99.90;;;;;;5051775;28;20308;-64
2023/08/24 05:03:19;;;;;;;17.43;12.30;;;17.80;99.90;;;;;;5049150;28;20567;-64
2023/08/24 05:05:49;;;;;;;15.37;10.50;;;17.70;99.90;;;;;;5036899;28;20339;-64
2023/08/24 05:08:17;;;;;;;15.60;11.57;;;17.70;99.90;;;;;;5047311;28;20845;-63
2023/08/24 05:10:46;;;;;;;14.07;11.13;;;17.80;99.90;;;;;;5045845;28;20232;-63
2023/08/24 05:13:15;;;;;;;17.20;10.90;;;17.80;99.90;;;;;;5046373;28;20211;-64
2023/08/24 05:15:43;;;;;;;13.53;11.20;;;17.80;99.90;;;;;;5046924;28;20240;-64
2023/08/24 05:18:13;;;;;;;14.27;11.40;;;17.80;99.90;;;;;;5045808;28;20648;-64
2023/08/24 05:20:41;;;;;;;15.23;11.17;;;17.80;99.90;;;;;;5046288;28;20224;-63
2023/08/24 05:23:11;;;;;;;15.00;11.07;;;17.80;99.90;;;;;;5041510;28;20244;-63
2023/08/24 05:25:39;;;;;;;15.00;11.50;;;17.80;99.90;;;;;;5026599;28;20896;-63
2023/08/24 05:28:07;;;;;;;17.97;11.70;;;17.90;99.90;;;;;;5043562;28;20189;-63
2023/08/24 05:30:36;;;;;;;15.13;11.60;;;17.90;99.90;;;;;;5037125;28;20266;-64
2023/08/24 05:33:05;;;;;;;16.63;11.23;;;18.00;99.90;;;;;;5039083;28;20224;-64
2023/08/24 05:35:33;;;;;;;15.13;10.47;;;18.00;99.90;;;;;;5037656;28;20232;-63
2023/08/24 05:38:02;;;;;;;15.70;12.43;;;18.00;99.90;;;;;;5027026;28;20229;-63
2023/08/24 05:40:34;;;;;;;14.20;11.27;;;18.10;99.90;;;;;;5042533;28;20189;-63
2023/08/24 05:43:02;;;;;;;17.37;10.90;;;18.10;99.90;;;;;;5043917;28;20189;-64
2023/08/24 05:45:31;;;;;;;25.53;12.03;;;18.20;99.90;;;;;;5040585;28;20894;-64
2023/08/24 05:47:59;;;;;;;17.10;11.40;;;18.20;99.90;;;;;;5041491;28;21103;-63
2023/08/24 05:50:27;;;;;;;15.73;11.27;;;18.30;99.90;;;;;;5047997;28;20224;-63
2023/08/24 05:52:56;;;;;;;16.60;10.87;;;18.40;99.90;;;;;;5040348;28;20279;-63
2023/08/24 05:55:25;;;;;;;18.87;11.37;;;18.50;99.90;;;;;;5038305;28;20200;-63
2023/08/24 05:57:54;;;;;;;15.53;10.93;;;18.60;99.90;;;;;;5042778;28;20189;-63
2023/08/24 06:00:23;;;;;;;18.40;10.50;;;18.70;99.90;;;;;;5045200;28;20698;-64
2023/08/24 06:02:51;;;;;;;17.13;11.53;;;18.80;99.90;;;;;;5043938;28;20226;-63
2023/08/24 06:05:19;;;;;;;14.50;10.43;;;18.90;99.90;;;;;;5048243;28;20231;-64
2023/08/24 06:07:50;;;;;;;13.97;10.73;;;19.00;99.90;;;;;;5039474;28;20228;-63
2023/08/24 06:10:19;;;;;;;15.27;10.40;;;19.20;99.90;;;;;;5036990;28;20197;-64
2023/08/24 06:12:47;;;;;;;13.53;10.40;;;19.30;99.90;;;;;;5028817;28;20217;-64
2023/08/24 06:15:19;;;;;;;14.17;9.20;;;19.40;99.90;;;;;;5036441;28;20266;-63
2023/08/24 06:17:47;;;;;;;15.50;9.77;;;19.50;99.90;;;;;;5045029;28;20220;-64
2023/08/24 06:20:17;;;;;;;15.43;10.07;;;19.60;99.90;;;;;;5044393;28;20291;-64
2023/08/24 06:22:45;;;;;;;17.07;10.23;;;19.80;99.90;;;;;;5045390;28;20319;-64
2023/08/24 06:25:14;;;;;;;14.47;9.17;;;19.90;99.90;;;;;;5050313;28;20186;-63
2023/08/24 06:27:42;;;;;;;15.30;10.00;;;20.10;99.90;;;;;;5044575;28;20693;-64
2023/08/24 06:30:11;;;;;;;16.53;8.93;;;20.30;99.90;;;;;;5042256;28;20733;-64
2023/08/24 06:32:42;;;;;;;15.00;8.97;;;20.30;99.90;;;;;;5040869;28;20226;-63
2023/08/24 06:35:14;;;;;;;16.03;9.17;;;20.40;99.90;;;;;;5038537;28;20227;-63
2023/08/24 06:37:43;;;;;;;14.40;9.13;;;20.40;99.90;;;;;;5037580;28;20595;-63
2023/08/24 06:40:13;;;;;;;14.23;9.03;;;20.50;99.90;;;;;;5034143;28;20597;-63
2023/08/24 06:42:41;;;;;;;13.20;9.40;;;20.60;99.90;;;;;;5043564;28;20316;-63
2023/08/24 06:45:11;;;;;;;17.60;9.50;;;20.50;99.90;;;;;;5041215;28;20221;-63
2023/08/24 06:47:41;;;;;;;16.67;9.60;;;20.60;99.90;;;;;;5044895;28;20221;-63
2023/08/24 06:50:10;;;;;;;12.27;9.00;;;20.60;99.90;;;;;;5043984;28;20699;-63
2023/08/24 06:52:38;;;;;;;12.13;8.37;;;20.60;99.90;;;;;;5046869;28;20599;-63
2023/08/24 06:55:09;;;;;;;14.17;9.37;;;20.70;99.90;;;;;;5039201;28;20218;-63
2023/08/24 06:57:37;;;;;;;12.97;8.50;;;20.90;99.90;;;;;;5044303;28;20221;-63
2023/08/24 07:00:08;;;;;;;11.47;8.97;;;21.00;99.90;;;;;;5044365;28;20220;-63
2023/08/24 07:02:37;;;;;;;8.73;7.83;;;21.10;99.90;;;;;;5032031;28;20309;-63
2023/08/24 07:05:08;;;;;;;14.73;9.13;;;21.20;99.90;;;;;;5039127;28;21433;-63
2023/08/24 07:07:37;;;;;;;14.40;9.27;;;21.30;99.90;;;;;;5022972;28;20280;-63
2023/08/24 07:10:06;;;;;;;10.63;8.10;;;21.30;99.90;;;;;;5044761;28;20196;-63
2023/08/24 07:12:35;;;;;;;14.73;8.80;;;21.40;99.90;;;;;;5042950;28;20229;-63
2023/08/24 07:15:03;;;;;;;11.90;8.37;;;21.40;99.90;;;;;;5039380;28;20220;-63
2023/08/24 07:17:32;;;;;;;11.57;8.23;;;21.40;99.90;;;;;;5043240;28;20225;-63
2023/08/24 07:20:00;;;;;;;13.47;8.57;;;21.40;99.90;;;;;;5034409;28;20302;-63
2023/08/24 07:22:30;;;;;;;8.90;7.77;;;21.40;99.90;;;;;;5040076;28;20290;-62
2023/08/24 07:24:58;;;;;;;13.23;9.33;;;21.30;99.90;;;;;;5037934;28;20614;-63
2023/08/24 07:27:29;;;;;;;9.93;7.53;;;21.30;99.90;;;;;;5041680;28;20217;-63
2023/08/24 07:29:57;;;;;;;14.90;8.43;;;21.20;99.90;;;;;;5047859;28;20217;-63
2023/08/24 07:32:25;;;;;;;15.33;9.50;;;21.30;99.90;;;;;;5042660;28;20841;-63
2023/08/24 07:34:54;;;;;;;11.80;7.50;;;21.20;99.90;;;;;;5040443;28;20229;-62
2023/08/24 07:37:22;;;;;;;13.13;8.40;;;21.20;99.90;;;;;;5026644;28;20205;-62
2023/08/24 07:39:51;;;;;;;15.07;8.70;;;21.30;99.90;;;;;;5043520;28;20193;-63
2023/08/24 07:42:21;;;;;;;10.97;7.53;;;21.30;99.90;;;;;;5043784;28;20227;-63
2023/08/24 07:44:50;;;;;;;11.20;8.00;;;21.30;99.90;;;;;;5041740;28;20217;-63
2023/08/24 07:47:18;;;;;;;10.90;7.30;;;21.30;99.90;;;;;;5041609;28;20222;-63
2023/08/24 07:49:47;;;;;;;11.50;8.53;;;21.30;99.90;;;;;;5047187;28;20321;-62
2023/08/24 07:52:15;;;;;;;8.67;7.37;;;21.40;99.90;;;;;;5039311;28;20191;-63
2023/08/24 07:54:44;;;;;;;8.07;7.23;;;21.40;99.90;;;;;;5038350;28;20965;-62
2023/08/24 07:57:14;;;;;;;12.77;8.70;;;21.40;99.90;;;;;;5040984;28;20214;-62
2023/08/24 07:59:42;;;;;;;14.50;9.23;;;21.40;99.90;;;;;;5039461;28;20234;-62
2023/08/24 08:02:10;;;;;;;14.23;10.37;;;21.50;99.90;;;;;;5042256;28;20226;-62
2023/08/24 08:04:39;;;;;;;16.27;9.50;;;21.40;99.90;;;;;;5038118;28;20251;-62
2023/08/24 08:07:07;;;;;;;13.27;9.43;;;21.30;99.90;;;;;;5040489;28;20202;-63
2023/08/24 08:09:37;;;;;;;11.00;9.23;;;21.30;99.90;;;;;;5041287;28;20222;-62
2023/08/24 08:12:06;;;;;;;12.73;9.40;;;21.30;99.90;;;;;;5039831;28;20248;-62
2023/08/24 08:14:35;;;;;;;16.63;9.50;;;21.30;99.90;;;;;;5042525;28;20239;-62
2023/08/24 08:17:04;;;;;;;13.30;8.57;;;21.30;99.90;;;;;;5041609;28;20232;-62
2023/08/24 08:19:35;;;;;;;13.70;8.63;;;21.30;99.90;;;;;;5041073;28;20209;-62
2023/08/24 08:22:03;;;;;;;12.97;8.73;;;21.40;99.90;;;;;;5041793;28;20197;-63
2023/08/24 08:24:37;;;;;;;9.87;8.03;;;21.40;99.90;;;;;;5042712;28;20246;-62
2023/08/24 08:27:06;;;;;;;11.40;8.90;;;21.50;99.90;;;;;;5044873;28;20692;-62
2023/08/24 08:29:36;;;;;;;14.93;8.07;;;21.40;99.90;;;;;;5042887;28;20336;-62
2023/08/24 08:32:05;;;;;;;13.77;7.97;;;21.50;99.90;;;;;;5041844;28;20241;-62
2023/08/24 08:34:34;;;;;;;13.20;8.63;;;21.50;99.90;;;;;;5037287;28;20192;-62
2023/08/24 08:37:03;;;;;;;19.50;9.20;;;21.50;99.90;;;;;;5036593;28;20230;-63
2023/08/24 08:39:33;;;;;;;8.37;7.57;;;21.50;99.90;;;;;;5040154;28;20227;-62
2023/08/24 08:42:02;;;;;;;15.30;9.27;;;21.50;99.90;;;;;;5041808;28;20217;-62
2023/08/24 08:44:32;;;;;;;16.03;8.87;;;21.50;99.90;;;;;;5041623;28;20223;-63
2023/08/24 08:47:02;;;;;;;12.87;8.73;;;21.50;99.90;;;;;;5033206;28;20222;-63
2023/08/24 08:49:32;;;;;;;11.50;8.30;;;21.50;99.90;;;;;;5035357;28;20274;-62
2023/08/24 08:52:01;;;;;;;11.10;8.60;;;21.40;99.90;;;;;;5038575;28;20197;-62
2023/08/24 08:54:29;;;;;;;12.03;9.00;;;21.40;99.90;;;;;;5043275;28;20269;-63
2023/08/24 08:56:57;;;;;;;9.23;8.27;;;21.40;99.90;;;;;;5034056;28;21481;-63
2023/08/24 08:59:29;;;;;;;11.70;9.07;;;21.30;99.90;;;;;;5038215;28;20225;-63
2023/08/24 09:02:00;;;;;;;13.03;8.20;;;21.30;99.90;;;;;;5047096;28;20229;-62
2023/08/24 09:04:34;;;;;;;15.23;8.90;;;21.30;99.90;;;;;;5041977;28;20238;-62
2023/08/24 09:07:10;;;;;;;16.37;9.33;;;21.30;99.90;;;;;;5045139;28;20189;-63
2023/08/24 09:09:39;;;;;;;13.40;9.37;;;21.20;99.90;;;;;;5044275;28;20240;-62
2023/08/24 09:12:08;;;;;;;13.60;9.17;;;21.20;99.90;;;;;;5046794;28;20320;-62
2023/08/24 09:14:36;;;;;;;16.90;9.60;;;21.10;99.90;;;;;;5039911;28;20240;-63
2023/08/24 09:17:05;;;;;;;21.07;10.67;;;21.10;99.90;;;;;;5046738;28;20625;-62
2023/08/24 09:19:38;;;;;;;25.17;10.80;;;21.10;99.90;;;;;;5048025;28;20228;-62
2023/08/24 09:22:08;;;;;;;16.53;11.20;;;21.10;99.90;;;;;;5048839;28;20548;-63
2023/08/24 09:24:37;;;;;;;16.30;11.30;;;21.00;99.90;;;;;;5044612;28;20216;-62
2023/08/24 09:27:16;;;;;;;15.43;10.60;;;21.00;99.90;;;;;;5041429;28;20217;-63
2023/08/24 09:29:50;;;;;;;18.03;10.40;;;21.00;99.90;;;;;;5044797;28;20368;-62
2023/08/24 09:32:23;;;;;;;19.50;10.07;;;20.90;99.90;;;;;;5025386;28;20216;-63
2023/08/24 09:34:53;;;;;;;14.30;8.60;;;21.00;99.90;;;;;;5035100;28;20300;-63
2023/08/24 09:37:21;;;;;;;16.20;8.90;;;21.00;99.90;;;;;;5043772;28;20245;-62
2023/08/24 09:39:50;;;;;;;14.33;8.00;;;21.00;99.90;;;;;;5042307;28;20295;-63
2023/08/24 09:42:26;;;;;;;10.73;7.20;;;20.90;99.90;;;;;;5021279;28;20228;-63
2023/08/24 09:45:05;;;;;;;8.37;6.60;;;20.90;99.90;;;;;;5040168;28;20311;-63
2023/08/24 09:47:34;;;;;;;11.53;6.43;;;21.00;99.90;;;;;;5039909;28;20222;-62
2023/08/24 09:50:04;;;;;;;8.70;5.90;;;21.00;99.90;;;;;;5044133;28;20311;-62
2023/08/24 09:52:34;;;;;;;8.53;5.83;;;21.00;99.90;;;;;;5036636;28;20312;-62
2023/08/24 09:55:06;;;;;;;6.37;5.67;;;21.10;99.90;;;;;;5044335;28;20278;-62
2023/08/24 09:57:38;;;;;;;7.93;5.47;;;21.00;99.90;;;;;;5044005;28;20231;-62
2023/08/24 10:00:11;;;;;;;6.43;5.23;;;21.00;99.90;;;;;;5046008;28;20307;-62
2023/08/24 10:02:49;;;;;;;12.80;5.03;;;20.90;99.90;;;;;;5028941;28;20225;-63
2023/08/24 10:05:21;;;;;;;8.63;5.60;;;20.80;99.90;;;;;;5036926;28;20687;-63
2023/08/24 10:08:09;;;;;;;4.93;4.50;;;20.70;99.90;;;;;;5043775;28;20232;-63
2023/08/24 10:10:39;;;;;;;10.90;4.80;;;20.60;99.90;;;;;;5040837;28;20785;-62
2023/08/24 10:13:12;;;;;;;7.97;5.23;;;20.60;99.90;;;;;;5043632;28;20193;-64
2023/08/24 10:15:46;;;;;;;6.50;5.90;;;20.50;99.90;;;;;;5035200;28;20721;-62
2023/08/24 10:18:16;;;;;;;11.67;6.10;;;20.30;99.90;;;;;;5040451;28;20705;-63
2023/08/24 10:20:47;;;;;;;7.50;6.37;;;20.20;99.90;;;;;;5044918;28;20217;-62
2023/08/24 10:23:17;;;;;;;9.53;6.37;;;20.20;99.90;;;;;;5033935;28;20220;-62
2023/08/24 10:25:47;;;;;;;13.20;6.73;;;20.20;99.90;;;;;;5032496;28;20777;-63
2023/08/24 10:28:16;;;;;;;8.90;6.60;;;20.30;99.90;;;;;;5037002;28;20189;-62
2023/08/24 10:30:46;;;;;;;9.47;6.10;;;20.40;99.90;;;;;;5032482;28;20217;-62
2023/08/24 10:33:16;;;;;;;9.23;7.07;;;20.50;99.90;;;;;;5034883;28;20228;-62
2023/08/24 10:35:46;;;;;;;7.80;7.00;;;20.50;99.90;;;;;;5035645;28;20256;-62
2023/08/24 10:38:26;;;;;;;13.30;7.70;;;20.60;99.90;;;;;;5040660;28;20232;-63
2023/08/24 10:40:55;;;;;;;7.67;6.57;;;20.80;99.90;;;;;;5038544;28;20250;-62
2023/08/24 10:43:24;;;;;;;9.57;5.93;;;21.00;99.90;;;;;;5040396;28;20193;-62
2023/08/24 10:45:56;;;;;;;9.47;5.97;;;21.10;99.90;;;;;;5038254;28;20203;-63
2023/08/24 10:48:25;;;;;;;9.47;6.00;;;21.30;99.90;;;;;;5037465;28;20308;-62
2023/08/24 10:51:21;;;;;;;7.53;5.57;;;21.60;99.90;;;;;;5039795;28;20312;-62
2023/08/24 10:53:54;;;;;;;8.93;5.43;;;22.00;99.90;;;;;;5013795;28;20230;-63
2023/08/24 10:56:30;;;;;;;7.43;5.10;;;22.10;99.90;;;;;;5039590;28;20599;-62
2023/08/24 10:59:14;;;;;;;5.37;4.87;;;22.10;99.90;;;;;;5038220;28;20244;-63
2023/08/24 11:01:44;;;;;;;5.67;5.07;;;22.10;99.90;;;;;;5033896;28;20253;-62
2023/08/24 11:04:13;;;;;;;5.63;4.73;;;22.10;99.90;;;;;;5040796;28;20225;-62
2023/08/24 11:06:58;;;;;;;6.67;5.07;;;22.00;99.90;;;;;;5037669;28;20219;-62
2023/08/24 11:09:45;;;;;;;6.07;5.33;;;22.00;99.90;;;;;;5039315;28;20225;-63
2023/08/24 11:12:15;;;;;;;4.80;4.40;;;22.00;99.90;;;;;;5033198;28;20714;-63
2023/08/24 11:14:51;;;;;;;6.93;4.70;;;22.10;99.90;;;;;;5024765;28;20214;-69
2023/08/24 11:17:21;;;;;;;5.40;4.90;;;22.30;99.90;;;;;;5043522;28;20268;-63
2023/08/24 11:19:50;;;;;;;7.80;5.17;;;22.30;99.90;;;;;;5041523;28;20225;-60
2023/08/24 11:22:21;;;;;;;7.30;4.40;;;22.40;99.90;;;;;;5039529;28;20195;-63
2023/08/24 11:24:49;;;;;;;5.63;4.80;;;22.40;99.90;;;;;;5027994;28;20248;-63
2023/08/24 11:27:17;;;;;;;6.63;4.70;;;22.40;99.90;;;;;;5026934;28;20253;-62
2023/08/24 11:29:46;;;;;;;4.70;4.20;;;22.40;99.90;;;;;;5040851;28;20242;-63
2023/08/24 11:32:14;;;;;;;4.50;4.20;;;22.40;99.90;;;;;;5038410;28;20225;-62
2023/08/24 11:34:42;;;;;;;4.07;3.77;;;22.40;99.90;;;;;;5035257;28;20314;-62
2023/08/24 11:37:21;;;;;;;7.00;4.30;;;22.30;99.90;;;;;;5035305;28;20232;-63
2023/08/24 11:39:49;;;;;;;7.73;4.37;;;22.40;99.90;;;;;;5039524;28;20228;-62
2023/08/24 11:42:18;;;;;;;4.53;4.10;;;22.40;99.90;;;;;;5022211;28;20228;-63
2023/08/24 11:44:47;;;;;;;4.30;3.93;;;22.30;99.90;;;;;;5039004;28;20317;-63
2023/08/24 11:47:16;;;;;;;4.10;3.80;;;22.30;99.90;;;;;;5031916;28;20238;-63
2023/08/24 11:49:45;;;;;;;4.13;3.67;;;22.10;99.90;;;;;;5039941;28;20226;-62
2023/08/24 11:52:15;;;;;;;4.90;4.50;;;22.00;99.90;;;;;;5033957;28;20241;-63
2023/08/24 11:54:46;;;;;;;4.10;3.80;;;22.00;99.90;;;;;;5043539;28;20233;-63
2023/08/24 11:57:14;;;;;;;5.27;4.40;;;21.90;99.90;;;;;;5034770;28;20228;-63
2023/08/24 11:59:43;;;;;;;5.77;4.40;;;21.90;99.90;;;;;;5041729;28;20222;-63
2023/08/24 12:02:12;;;;;;;8.63;4.70;;;21.80;99.90;;;;;;5027048;28;20226;-63
2023/08/24 12:04:42;;;;;;;6.50;4.60;;;21.80;99.90;;;;;;5028431;28;20232;-63
2023/08/24 12:07:11;;;;;;;6.13;4.60;;;21.80;99.90;;;;;;5039397;28;20214;-63
2023/08/24 12:09:40;;;;;;;5.40;4.57;;;21.80;99.90;;;;;;5039156;28;20242;-63
2023/08/24 12:12:15;;;;;;;7.00;4.70;;;21.80;99.90;;;;;;5038252;28;20224;-63
2023/08/24 12:14:43;;;;;;;4.83;4.43;;;21.80;99.90;;;;;;5041844;28;20224;-62
2023/08/24 12:17:12;;;;;;;7.53;4.73;;;21.80;99.90;;;;;;5039102;28;20230;-63
2023/08/24 12:19:43;;;;;;;7.97;4.30;;;21.80;99.90;;;;;;5042015;28;20315;-63
2023/08/24 12:22:14;;;;;;;7.43;4.77;;;21.90;99.90;;;;;;5043392;28;20189;-63
2023/08/24 12:24:45;;;;;;;4.40;4.00;;;21.90;99.90;;;;;;5038577;28;20217;-65
2023/08/24 12:27:20;;;;;;;4.80;4.40;;;21.90;99.90;;;;;;5037578;28;20292;-63
2023/08/24 12:29:49;;;;;;;6.37;4.07;;;21.90;99.90;;;;;;5044532;28;20219;-63
2023/08/24 12:32:20;;;;;;;6.67;4.73;;;21.90;99.90;;;;;;5047104;28;20221;-63
2023/08/24 12:34:48;;;;;;;5.30;4.87;;;21.90;99.90;;;;;;5043892;28;20699;-62
2023/08/24 12:37:17;;;;;;;5.40;4.60;;;21.80;99.90;;;;;;5049762;28;20193;-63
2023/08/24 12:39:45;;;;;;;4.93;4.53;;;21.90;99.90;;;;;;5049420;28;20228;-62
2023/08/24 12:42:13;;;;;;;9.13;5.23;;;21.90;99.90;;;;;;5041971;28;20230;-62
2023/08/24 12:44:43;;;;;;;6.57;5.57;;;22.00;99.90;;;;;;5046348;28;20599;-62
2023/08/24 12:47:12;;;;;;;7.13;5.00;;;21.90;99.90;;;;;;5049560;28;20224;-62
2023/08/24 12:49:40;;;;;;;5.80;4.90;;;21.90;99.90;;;;;;5041222;28;20317;-61
2023/08/24 12:52:08;;;;;;;9.43;5.00;;;21.90;99.90;;;;;;5043426;28;20197;-62